Data for 08/06/2018

Time Sea-Level Adjusted Pressure Absolute Pressure Temperature Relative Humidity Dew Point   
(mb) (inHg) (mb) (inHg) (C) (F) (%) (C) (F)
00:05 1025 30.27 854 25.22 9.5 49.1 78 5.8 42.4
00:10 1025 30.27 854 25.22 9.3 48.8 78 5.7 42.3
00:15 1025 30.27 854 25.22 9.3 48.7 78 5.7 42.2
00:20 1025 30.27 854 25.22 9.2 48.6 78 5.6 42.1
00:25 1025 30.27 854 25.22 9.1 48.4 78 5.6 42
00:30 1025 30.27 854 25.22 9.1 48.4 78 5.4 41.7
00:35 1025 30.27 854 25.22 9.3 48.7 76 5.4 41.6
00:40 1025 30.27 854 25.22 9.4 48.9 77 5.6 42.1
00:45 1025 30.27 854 25.22 9.2 48.5 78 5.5 42
00:50 1025 30.27 854 25.22 9.2 48.5 77 5.3 41.6
00:55 1025 30.27 854 25.22 9.4 48.8 77 5.5 41.8
01:00 1025 30.27 854 25.22 9.4 49 77 5.5 42
01:05 1025 30.27 854 25.22 9.2 48.6 77 5.4 41.8
01:10 1025 30.27 854 25.22 9.1 48.4 77 5.4 41.7
01:15 1025 30.27 854 25.22 9.1 48.4 77 5.3 41.6
01:20 1025 30.27 854 25.22 9.2 48.6 76 5.3 41.5
01:25 1025 30.27 854 25.22 9.3 48.8 76 5.4 41.7
01:30 1025 30.27 854 25.22 9.3 48.7 77 5.4 41.7
01:35 1025 30.27 854 25.22 9.2 48.6 77 5.3 41.6
01:40 1025 30.27 854 25.22 9.3 48.7 77 5.4 41.8
01:45 1025 30.27 854 25.22 9.1 48.4 77 5.4 41.7
01:50 1025 30.27 854 25.22 9.1 48.4 77 5.3 41.5
01:55 1025 30.27 854 25.22 9 48.1 77 5.2 41.4
02:00 1025 30.27 854 25.22 8.9 48.1 77 5.2 41.3
02:05 1025 30.27 854 25.22 9.1 48.5 76 5.2 41.4
02:10 1025 30.27 854 25.22 9 48.2 77 5.2 41.3
02:15 1025 30.27 854 25.22 9 48.2 76 5.1 41.1
02:20 1025 30.27 854 25.22 9.3 48.7 75 5.1 41.3
02:25 1025 30.27 854 25.22 9.2 48.6 76 5.1 41.3
02:30 1025 30.27 854 25.22 8.9 48 77 5 41
02:35 1025 30.27 854 25.22 8.7 47.6 78 5 40.9
02:40 1025 30.27 854 25.22 8.6 47.4 78 4.9 40.9
02:45 1025 30.27 854 25.22 8.5 47.4 78 4.9 40.8
02:50 1025 30.27 854 25.22 8.6 47.5 78 4.9 40.8
02:55 1025 30.27 854 25.22 8.6 47.4 78 5 41
03:00 1025 30.27 854 25.22 8.5 47.2 78 4.8 40.7
03:05 1025 30.27 854 25.22 8.6 47.4 77 4.9 40.8
03:10 1025 30.27 854 25.22 8.6 47.5 77 4.8 40.6
03:15 1025 30.27 854 25.22 8.7 47.6 78 5 40.9
03:20 1025 30.27 854 25.22 8.5 47.3 78 4.9 40.8
03:25 1025 30.27 854 25.22 8.5 47.2 78 4.8 40.6
03:30 1025 30.27 854 25.22 8.5 47.2 77 4.8 40.6
03:35 1025 30.27 854 25.22 8.6 47.4 77 4.7 40.5
03:40 1025 30.27 854 25.22 8.6 47.5 77 4.7 40.5
03:45 1025 30.27 854 25.22 8.5 47.3 77 4.7 40.4
03:50 1025 30.27 854 25.22 8.5 47.3 76 4.6 40.2
03:55 1025 30.27 854 25.22 8.6 47.4 76 4.6 40.3
04:00 1025 30.27 854 25.22 8.6 47.5 76 4.7 40.4
04:05 1025 30.27 854 25.22 8.6 47.4 76 4.7 40.4
04:10 1025 30.27 854 25.22 8.3 47 77 4.6 40.4
04:15 1025 30.27 855 25.25 8.1 46.6 78 4.5 40.2
04:20 1025 30.27 855 25.25 8.1 46.5 77 4.4 39.9
04:25 1025 30.27 855 25.25 8.4 47 76 4.4 39.9
04:30 1025 30.27 855 25.25 8.5 47.3 76 4.5 40.2
04:35 1025 30.27 855 25.25 8.5 47.4 76 4.5 40.1
04:40 1025 30.27 855 25.25 8.6 47.5 75 4.5 40.2
04:45 1025 30.27 855 25.25 8.7 47.6 75 4.6 40.2
04:50 1025 30.27 855 25.25 8.7 47.7 75 4.6 40.4
04:55 1025 30.27 855 25.25 8.5 47.2 77 4.6 40.3
05:00 1025 30.27 855 25.25 8.3 47 77 4.4 40
05:05 1025 30.27 855 25.25 8.4 47.2 76 4.5 40
05:10 1025 30.27 855 25.25 8.4 47.2 76 4.5 40.1
05:15 1025 30.27 855 25.25 8.4 47.1 76 4.3 39.8
05:20 1025 30.27 855 25.25 8.6 47.5 74 4.3 39.8
05:25 1025 30.27 855 25.25 8.7 47.7 74 4.4 39.9
05:30 1025 30.27 855 25.25 8.7 47.6 74 4.3 39.7
05:35 1025 30.27 855 25.25 8.5 47.4 75 4.4 39.9
05:40 1026 30.3 855 25.25 8.3 46.9 76 4.3 39.7
05:45 1026 30.3 855 25.25 8.1 46.6 77 4.3 39.7
05:50 1026 30.3 855 25.25 8.1 46.6 77 4.3 39.8
05:55 1026 30.3 855 25.25 8 46.4 78 4.4 39.9
06:00 1026 30.3 855 25.25 7.9 46.2 78 4.2 39.6
06:05 1026 30.3 855 25.25 7.9 46.1 78 4.2 39.6
06:10 1026 30.3 855 25.25 7.8 46.1 77 4.1 39.4
06:15 1026 30.3 855 25.25 7.8 46 78 4.1 39.4
06:20 1026 30.3 855 25.25 7.6 45.6 78 4 39.2
06:25 1026 30.3 855 25.25 7.5 45.4 79 4 39.2
06:30 1026 30.3 855 25.25 7.4 45.2 79 4 39.3
06:35 1026 30.3 855 25.25 7.3 45.2 80 4 39.3
06:40 1026 30.3 855 25.25 7.4 45.3 79 4 39.2
06:45 1026 30.3 855 25.25 7.5 45.5 78 3.9 39
06:50 1026 30.3 855 25.25 7.8 46 77 3.9 39
06:55 1026 30.3 855 25.25 7.9 46.3 76 3.9 39
07:00 1026 30.3 855 25.25 8 46.4 75 3.9 39
07:05 1026 30.3 855 25.25 8.3 46.9 74 3.9 39.1
07:10 1026 30.3 855 25.25 8.5 47.3 73 4 39.3
07:15 1026 30.3 855 25.25 8.8 47.8 72 4.1 39.4
07:20 1026 30.3 855 25.25 9.1 48.3 71 4.2 39.5
07:25 1026 30.3 855 25.25 9.3 48.7 71 4.3 39.8
07:30 1026 30.3 855 25.25 9.4 48.9 71 4.5 40
07:35 1026 30.3 855 25.25 9.5 49 71 4.6 40.2
07:40 1026 30.3 855 25.25 9.6 49.3 71 4.6 40.4
07:45 1026 30.3 855 25.25 9.8 49.6 70 4.7 40.4
07:50 1026 30.3 855 25.25 10.1 50.3 69 4.7 40.4
07:55 1026 30.3 855 25.25 10.6 51 67 4.8 40.7
08:00 1026 30.3 855 25.25 10.9 51.5 66 4.9 40.8
08:05 1026 30.3 855 25.25 11 51.8 65 4.8 40.6
08:10 1026 30.3 855 25.25 11.5 52.7 64 4.9 40.8
08:15 1026 30.3 855 25.25 11.9 53.5 63 5.1 41.2
08:20 1026 30.3 855 25.25 12.2 54 62 5.2 41.3
08:25 1026 30.3 855 25.25 12.2 54 61 5.1 41.1
08:30 1026 30.3 855 25.25 12.7 54.8 60 5.2 41.4
08:35 1026 30.3 855 25.25 12.6 54.7 64 5.9 42.7
08:40 1026 30.3 855 25.25 13.3 56 63 6.4 43.5
08:45 1026 30.3 855 25.25 13.4 56.1 57 5.2 41.4
08:50 1026 30.3 855 25.25 13.6 56.4 56 5.1 41.2
08:55 1026 30.3 855 25.25 14 57.2 55 5.2 41.4
09:00 1026 30.3 855 25.25 14 57.2 53 4.8 40.6
09:05 1026 30.3 855 25.25 14.2 57.5 54 5.2 41.3
09:10 1026 30.3 855 25.25 14.9 58.8 49 4.4 40
09:15 1026 30.3 855 25.25 15.2 59.3 50 4.8 40.7
09:20 1026 30.3 855 25.25 15.9 60.5 47 4.6 40.4
09:25 1026 30.3 855 25.25 16.1 61 47 4.8 40.7
09:30 1026 30.3 856 25.28 15.8 60.5 48 4.9 40.9
09:35 1026 30.3 856 25.28 16.4 61.5 48 5.4 41.7
09:40 1026 30.3 856 25.28 16.5 61.7 45 4.7 40.5
09:45 1026 30.3 856 25.28 17.1 62.7 44 4.8 40.6
09:50 1026 30.3 856 25.28 17.3 63.1 45 5.3 41.6
09:55 1026 30.3 856 25.28 17.1 62.8 43 4.5 40.1
10:00 1026 30.3 856 25.28 17.6 63.6 43 4.9 40.8
10:05 1026 30.3 856 25.28 17.8 64 43 5.2 41.4
10:10 1026 30.3 856 25.28 18 64.3 41 4.8 40.6
10:15 1026 30.3 856 25.28 18.8 65.8 40 5.2 41.3
10:20 1026 30.3 856 25.28 19.1 66.3 39 4.9 40.8
10:25 1026 30.3 856 25.28 18.9 66.1 41 5.4 41.8
10:30 1026 30.3 856 25.28 18.4 65.1 41 5.1 41.2
10:35 1026 30.3 855 25.25 18.1 64.7 41 4.8 40.7
10:40 1026 30.3 855 25.25 18.5 65.2 42 5.3 41.5
10:45 1026 30.3 855 25.25 19.1 66.4 41 5.8 42.4
10:50 1026 30.3 855 25.25 18.7 65.6 42 5.7 42.3
10:55 1026 30.3 855 25.25 18.8 65.8 41 5.2 41.4
11:00 1026 30.3 855 25.25 18.7 65.6 43 5.8 42.5
11:05 1026 30.3 855 25.25 18.5 65.2 42 5.4 41.8
11:10 1026 30.3 855 25.25 18.8 65.8 40 4.9 40.9
11:15 1026 30.3 855 25.25 19.8 67.7 36 4.4 39.8
11:20 1026 30.3 855 25.25 20 67.9 40 6 42.8
11:25 1026 30.3 855 25.25 19.8 67.6 38 5.4 41.7
11:30 1026 30.3 855 25.25 20.1 68.3 36 4.7 40.5
11:35 1026 30.3 855 25.25 20.7 69.3 36 5.4 41.8
11:40 1026 30.3 855 25.25 19.9 67.8 36 4.6 40.2
11:45 1026 30.3 855 25.25 20.9 69.7 35 4.9 40.8
11:50 1026 30.3 855 25.25 21.6 70.8 33 4.7 40.5
11:55 1026 30.3 855 25.25 21.6 70.8 34 5.1 41.1
12:00 1026 30.3 855 25.25 21.4 70.6 34 5 41
12:05 1026 30.3 855 25.25 21.9 71.5 33 4.9 40.9
12:10 1026 30.3 855 25.25 22.3 72.2 32 4.8 40.7
12:15 1026 30.3 855 25.25 22.6 72.6 32 5.2 41.4
12:20 1026 30.3 855 25.25 22.7 72.8 31 4.7 40.4
12:25 1026 30.3 855 25.25 22.6 72.8 29 3.8 38.9
12:30 1026 30.3 855 25.25 21.9 71.5 31 4.3 39.7
12:35 1026 30.3 855 25.25 21.7 71.1 31 3.8 38.9
12:40 1026 30.3 855 25.25 22.6 72.7 29 3.8 38.8
12:45 1026 30.3 855 25.25 23.3 74 29 4.4 39.9
12:50 1026 30.3 855 25.25 23.1 73.5 29 4.3 39.7
12:55 1026 30.3 855 25.25 22.7 72.8 29 3.7 38.7
13:00 1026 30.3 855 25.25 22.6 72.6 28 3.2 37.8
13:05 1026 30.3 855 25.25 23.6 74.5 25 2.4 36.3
13:10 1026 30.3 855 25.25 23.7 74.6 26 3.5 38.3
13:15 1026 30.3 855 25.25 24 75.2 24 2.3 36.2
13:20 1026 30.3 855 25.25 23.5 74.3 23 1.6 34.9
13:25 1026 30.3 855 25.25 24 75.1 25 3.2 37.7
13:30 1025 30.27 855 25.25 23.9 75.1 23 1.9 35.5
13:35 1025 30.27 855 25.25 23.7 74.7 24 2.1 35.8
13:40 1025 30.27 855 25.25 23.2 73.8 26 2.6 36.7
13:45 1025 30.27 855 25.25 24.3 75.7 22 1.4 34.5
13:50 1025 30.27 855 25.25 24.8 76.6 22 2.1 35.7
13:55 1025 30.27 855 25.25 24.7 76.4 22 1.8 35.3
14:00 1025 30.27 854 25.22 24.9 76.7 21 1.6 34.9
14:05 1025 30.27 854 25.22 25.6 78.1 20 1 33.8
14:10 1025 30.27 854 25.22 25.1 77.1 21 1.2 34.1
14:15 1025 30.27 854 25.22 25 77 22 1.8 35.3
14:20 1025 30.27 854 25.22 25 76.9 19 -0.2 31.6
14:25 1025 30.27 854 25.22 24.6 76.2 21 0.9 33.6
14:30 1025 30.27 854 25.22 24.8 76.6 18 -0.7 30.7
14:35 1025 30.27 854 25.22 24.3 75.7 18 -1 30.1
14:40 1025 30.27 854 25.22 24.7 76.4 20 0.7 33.2
14:45 1025 30.27 854 25.22 24.8 76.6 20 0.4 32.6
14:50 1025 30.27 854 25.22 25.2 77.4 15 -3.4 25.9
14:55 1025 30.27 854 25.22 25.6 78 12 -5.3 22.5
15:00 1025 30.27 854 25.22 25.5 78 14 -4.1 24.6
15:05 1025 30.27 854 25.22 25.9 78.6 14 -3.1 26.5
15:10 1025 30.27 854 25.22 25.8 78.5 15 -2.5 27.5
15:15 1024 30.24 854 25.22 25.8 78.4 16 -2.1 28.3
15:20 1024 30.24 854 25.22 25.7 78.2 17 -1.2 29.8
15:25 1024 30.24 853 25.19 26.2 79.2 16 -1.6 29.1
15:30 1024 30.24 853 25.19 25.9 78.7 18 -0.3 31.5
15:35 1024 30.24 853 25.19 26 78.7 18 -0.1 31.8
15:40 1024 30.24 853 25.19 26.1 79 17 -0.4 31.4
15:45 1024 30.24 853 25.19 26.6 79.9 17 -0.5 31.2
15:50 1024 30.24 853 25.19 26.3 79.3 17 -0.4 31.3
15:55 1024 30.24 853 25.19 24.8 76.6 19 -0.1 31.8
16:00 1024 30.24 853 25.19 25.2 77.4 18 -0.5 31.2
16:05 1024 30.24 853 25.19 25 77.1 19 -0.2 31.6
16:10 1024 30.24 853 25.19 25.3 77.5 18 -0.5 31.2
16:15 1024 30.24 853 25.19 25.6 78.1 18 -0 32
16:20 1024 30.24 853 25.19 25.8 78.5 18 -0.2 31.6
16:25 1024 30.24 853 25.19 26 78.9 18 0.4 32.6
16:30 1024 30.24 853 25.19 25.8 78.5 18 -0.2 31.6
16:35 1024 30.24 853 25.19 26.2 79.2 18 0 32.1
16:40 1024 30.24 853 25.19 25.6 78 19 0.7 33.3
16:45 1024 30.24 853 25.19 26.1 79.1 18 0.3 32.6
16:50 1024 30.24 853 25.19 26.6 79.9 17 -0.4 31.3
16:55 1024 30.24 853 25.19 26.5 79.7 17 -0.3 31.5
17:00 1024 30.24 853 25.19 26.8 80.2 17 -0.1 31.8
17:05 1023 30.21 853 25.19 26.9 80.5 17 0.4 32.8
17:10 1023 30.21 853 25.19 26.2 79.1 18 0.3 32.5
17:15 1023 30.21 853 25.19 26.1 78.9 17 -0.4 31.2
17:20 1023 30.21 853 25.19 26.7 80 17 -0.2 31.7
17:25 1023 30.21 853 25.19 26.2 79.2 18 0.6 33
17:30 1023 30.21 853 25.19 25.8 78.4 19 0.4 32.8
17:35 1023 30.21 853 25.19 25.6 78.1 18 -0.3 31.5
17:40 1023 30.21 852 25.16 25.5 77.8 19 0.2 32.4
17:45 1023 30.21 852 25.16 25.1 77.2 19 -0.1 31.8
17:50 1023 30.21 852 25.16 25.3 77.5 19 -0.1 31.9
17:55 1023 30.21 852 25.16 25.6 78.1 19 0.3 32.6
18:00 1023 30.21 852 25.16 26.3 79.3 18 0.3 32.6
18:05 1023 30.21 852 25.16 25.5 78 19 0.4 32.7
18:10 1023 30.21 852 25.16 26 78.7 18 0 32.1
18:15 1023 30.21 852 25.16 26.2 79.2 18 0.6 33
18:20 1023 30.21 852 25.16 25.8 78.4 18 -0.4 31.2
18:25 1023 30.21 852 25.16 25.9 78.6 18 -0.1 31.9
18:30 1023 30.21 852 25.16 26 78.9 17 -0.3 31.5
18:35 1023 30.21 852 25.16 25.8 78.4 19 0.6 33
18:40 1023 30.21 852 25.16 25.3 77.5 18 -0.3 31.4
18:45 1023 30.21 852 25.16 25 77 19 0 32.1
18:50 1023 30.21 852 25.16 25 77 19 0.1 32.1
18:55 1023 30.21 852 25.16 25.2 77.4 19 0.4 32.8
19:00 1023 30.21 852 25.16 25.2 77.3 19 -0 31.9
19:05 1023 30.21 852 25.16 24.9 76.7 20 0.9 33.7
19:10 1023 30.21 852 25.16 24.7 76.4 19 -0.3 31.5
19:15 1023 30.21 852 25.16 24.5 76.2 20 0 32.1
19:20 1023 30.21 852 25.16 24.5 76.2 19 -0.5 31.2
19:25 1023 30.21 852 25.16 24.5 76.2 21 0.8 33.5
19:30 1023 30.21 852 25.16 24.7 76.4 20 0.3 32.5
19:35 1023 30.21 852 25.16 24.7 76.4 22 1.5 34.7
19:40 1023 30.21 852 25.16 24.5 76.1 20 0.3 32.6
19:45 1023 30.21 852 25.16 24.4 75.9 21 0.7 33.3
19:50 1023 30.21 852 25.16 24.3 75.8 21 0.6 33
19:55 1023 30.21 852 25.16 24.2 75.5 22 1.1 33.9
20:00 1023 30.21 852 25.16 24.1 75.3 24 2.6 36.7
20:05 1023 30.21 852 25.16 23.9 75 23 1.6 34.8
20:10 1023 30.21 852 25.16 23.8 74.8 23 1.7 35.1
20:15 1023 30.21 852 25.16 23.6 74.4 24 2 35.6
20:20 1023 30.21 852 25.16 23.4 74.1 24 2 35.6
20:25 1023 30.21 852 25.16 23.1 73.6 25 2.5 36.5
20:30 1023 30.21 852 25.16 22.8 73 29 4 39.2
20:35 1023 30.21 852 25.16 22.5 72.5 30 4.4 40
20:40 1022 30.18 852 25.16 22.2 72 31 4.3 39.7
20:45 1022 30.18 852 25.16 21.9 71.3 37 6.5 43.7
20:50 1022 30.18 852 25.16 21.1 69.9 42 7.9 46.2
20:55 1022 30.18 852 25.16 20.2 68.4 40 6.3 43.4
21:00 1023 30.21 852 25.16 19.8 67.6 44 7.3 45.1
21:05 1023 30.21 852 25.16 19.2 66.6 42 6.2 43.1
21:10 1023 30.21 852 25.16 18.7 65.6 45 6.7 44.1
21:15 1023 30.21 852 25.16 18.3 64.9 47 6.8 44.2
21:20 1023 30.21 852 25.16 17.8 64.1 45 5.7 42.3
21:25 1023 30.21 852 25.16 17.8 64 43 5.2 41.3
21:30 1023 30.21 852 25.16 17.6 63.7 41 4.5 40.1
21:35 1023 30.21 852 25.16 17.6 63.7 41 4.3 39.7
21:40 1023 30.21 852 25.16 17.8 64 38 3.5 38.3
21:45 1023 30.21 852 25.16 18.2 64.7 38 3.6 38.6
21:50 1023 30.21 852 25.16 18 64.5 39 4.1 39.3
21:55 1023 30.21 852 25.16 17.6 63.6 41 4.3 39.8
22:00 1023 30.21 852 25.16 17.2 62.9 41 4.1 39.3
22:05 1023 30.21 852 25.16 17 62.6 41 3.8 38.8
22:10 1023 30.21 852 25.16 17 62.5 41 3.9 39
22:15 1023 30.21 852 25.16 17 62.5 41 3.6 38.4
22:20 1023 30.21 852 25.16 17.2 62.9 40 3.6 38.5
22:25 1023 30.21 852 25.16 17.2 62.9 41 3.8 38.8
22:30 1023 30.21 852 25.16 16.9 62.5 42 4 39.2
22:35 1023 30.21 852 25.16 16.7 62.1 42 3.7 38.7
22:40 1023 30.21 852 25.16 16.7 62.1 41 3.6 38.5
22:45 1023 30.21 852 25.16 16.7 62 41 3.5 38.3
22:50 1023 30.21 852 25.16 16.7 62 41 3.5 38.3
22:55 1023 30.21 852 25.16 16.6 61.8 41 3.4 38
23:00 1023 30.21 852 25.16 16.7 62.1 39 2.7 36.9
23:05 1023 30.21 852 25.16 16.9 62.4 38 2.6 36.7
23:10 1023 30.21 852 25.16 17 62.7 37 2.3 36.1
23:15 1023 30.21 852 25.16 17.1 62.8 37 2.4 36.3
23:20 1023 30.21 852 25.16 17 62.6 38 2.6 36.7
23:25 1023 30.21 852 25.16 16.8 62.2 39 2.8 37.1
23:30 1023 30.21 852 25.16 16.6 61.9 40 2.9 37.2
23:35 1023 30.21 852 25.16 16.4 61.4 40 3 37.4
23:40 1023 30.21 852 25.16 16.1 61 42 3.2 37.7
23:45 1023 30.21 852 25.16 15.9 60.5 43 3.4 38.2
23:50 1023 30.21 852 25.16 15.6 60.1 43 3.3 37.9
23:55 1023 30.21 852 25.16 15.8 60.4 42 3.1 37.5
24:00 1023 30.21 852 25.16 15.8 60.4 42 3.1 37.6